ME25 weather

Sunrise Farms Airport
Fort Kent, Maine, United States

Public forecast

Using degrees Fahrenheit for public forecast. Weather courtesy of forecast.io.

METAR (pilot weather report)

Closest report is Northern Aroostook Regional Airport, 7.9 nm (14.6 km) NNE. Retrieved 2019/05/21 15:53 UTC (16 minutes ago):

KFVE 211553Z AUTO 33019G26KT 10SM -RA FEW015 BKN024 OVC036 08/04 A2953 RMK AO2 PK WND 33026/1552 SLP002 P0001 T00830044

TAF (pilot weather forecast)

Closest forecast is Northern Aroostook Regional Airport, 7.9 nm (14.6 km) NNE. Retrieved 2019/05/21 12:24 UTC (4 hours ago):

TAF KFVE 211123Z 2112/2212 04003KT 2SM -RA BR OVC003 FM211600 33005KT 3SM -RA OVC007 FM220000 34010G19KT P6SM VCSH OVC015 FM220600 35009KT P6SM BKN020